Adrian, OR

4:50 PM MDT on September 20, 2014 (GMT -0600)
Owyhee Junction | Change Station
CLOSE
Current Station
Personal Weather Station
Location: Nyssa, OR
Elevation: 2210 ft
Nearby Weather Stations

Elev 2210 ft 43.79 °N, 117.10 °W | Updated 8 minutes ago

Clear
Clear
83.8 °F
Feels Like 82 °F
N
0.0
Wind Variable Wind from ESE

Today
High -- | Low -- °F
--% Chance of Precip.
Yesterday
High -- | Low -- °F
Precip. -- in
7:33 AM 7:49 PM
Waning Crescent, 10% visible
Pressure 30.05 in
Visibility 10.0 miles
Clouds Clear
Heat Index 82 °F
Dew Point 51 °F
Humidity 32%
Rainfall 0.00 in
Snow Depth 0 in , 0 in , 0 in
UV 4 out of 12
Pollen 8.20 out of 12
Air Quality Not available.
Flu Activity Not available.
METAR KEUL 202235Z AUTO 05004KT 10SM CLR 28/09 A3005 RMK AO1

More Conditions Fewer Conditions

Pressure 30.05 in
Visibility 10.0 miles
Clouds Clear
Heat Index 82 °F
Dew Point 51 °F
Humidity 32%
Rainfall 0.00 in
Snow Depth 0 in , 0 in , 0 in
UV 4 out of 12
Pollen 8.20 out of 12
Air Quality Not available.
Flu Activity Not available.
METAR KEUL 202235Z AUTO 05004KT 10SM CLR 28/09 A3005 RMK AO1

More Conditions Fewer Conditions

10-Day Weather Forecast

Almanac

Astronomy

Sep. 20, 2014 Rise Set
Actual Time 7:33 AM MDT 7:49 PM MDT
Civil Twilight 7:04 AM MDT 8:17 PM MDT
Nautical Twilight 6:30 AM MDT 8:51 PM MDT
Astronomical Twilight 5:56 AM MDT 9:25 PM MDT
Moon 4:11 AM MDT 5:59 PM MDT
Length of Visible Light 13h 13m
Length of Day
12h 15m
Tomorrow will be 2m 58s shorter.
Waning Crescent, 10% of the Moon is Illuminated
Today
Waning Crescent
Sep 24
New
Oct 1
First Quarter
Oct 8
Full
Oct 15
Last Quarter

Today's Extremes

State Highs State Lows

Community

WunderPhotos

Upload Photos

1,754,970 photos uploaded!

WunderBlogs® & News

Nearby

Snow Depth

Station Depth Elevation
Silver Creek 0 in 5720 ft
Santiam Junction 0 in 3750 ft
Clear Lake 0 in 3500 ft
Clackamas Lake 0 in 3400 ft
Sevenmile Marsh 0 in 6200 ft

Earthquake Activity

City Distance Mag. Time & Date
No recent earthquake activity has been reported nearby.
Minimum magnitude displayed is 2.5.

Coastal Water Temperatures

Place Temperature
No Stations Reporting

Nearby Weather Stations